Time;durP1;ratioP1;P1;durP2;ratioP2;P2;SDS_P1;SDS_P2;PMS_P1;PMS_P2;Temp;Humidity;BMP_temperature;BMP_pressure;BME280_temperature;BME280_humidity;BME280_pressure;Samples;Min_cycle;Max_cycle;Signal;HPM_P1;HPM_P2
2021/12/03 00:01:19;;;;;;;5.28;1.00;;;;;;;11.60;65.17;102057.00;5031696;28;20388;-72
2021/12/03 00:03:48;;;;;;;3.85;1.05;;;;;;;11.60;69.51;102050.09;5030911;28;20057;-73
2021/12/03 00:06:19;;;;;;;6.13;1.13;;;;;;;11.58;65.47;102056.03;5030614;28;20049;-71
2021/12/03 00:08:48;;;;;;;7.57;1.35;;;;;;;11.56;66.99;102053.34;5031610;28;20052;-72
2021/12/03 00:11:17;;;;;;;6.53;1.30;;;;;;;11.53;68.17;102054.09;5031917;28;20107;-72
2021/12/03 00:13:46;;;;;;;4.40;1.30;;;;;;;11.43;69.74;102049.31;5031734;28;20049;-72
2021/12/03 00:16:17;;;;;;;5.40;1.13;;;;;;;11.47;73.08;102051.22;5032295;28;20041;-71
2021/12/03 00:18:46;;;;;;;4.90;1.15;;;;;;;11.48;70.37;102049.53;5031880;28;20050;-71
2021/12/03 00:21:15;;;;;;;4.05;1.23;;;;;;;11.47;68.40;102058.13;5031106;28;20107;-71
2021/12/03 00:23:43;;;;;;;5.35;1.38;;;;;;;11.45;70.40;102063.25;5030602;28;20049;-72
2021/12/03 00:26:12;;;;;;;1.05;0.40;;;;;;;11.46;70.97;102057.22;5031110;28;20046;-71
2021/12/03 00:28:41;;;;;;;2.60;0.73;;;;;;;11.44;70.00;102061.44;5030781;28;20088;-72
2021/12/03 00:31:10;;;;;;;3.40;0.80;;;;;;;11.44;72.55;102052.78;5030741;28;20081;-71
2021/12/03 00:33:40;;;;;;;5.75;0.98;;;;;;;11.38;69.07;102050.78;5030339;28;20499;-71
2021/12/03 00:36:10;;;;;;;3.25;1.33;;;;;;;11.37;69.44;102049.03;5031027;28;20045;-71
2021/12/03 00:38:43;;;;;;;1.80;0.80;;;;;;;11.31;67.49;102040.97;5030491;28;20704;-71
2021/12/03 00:41:15;;;;;;;3.35;0.85;;;;;;;11.26;68.68;102042.44;5030594;28;20045;-72
2021/12/03 00:43:46;;;;;;;2.90;0.77;;;;;;;11.25;69.65;102043.28;5030108;28;20140;-71
2021/12/03 00:46:17;;;;;;;5.38;1.30;;;;;;;11.23;69.03;102050.09;5030575;28;20073;-71
2021/12/03 00:48:48;;;;;;;2.55;0.85;;;;;;;11.22;69.18;102056.94;5030622;28;20124;-72
2021/12/03 00:51:18;;;;;;;8.93;1.30;;;;;;;11.20;69.78;102056.03;5030603;28;20623;-73
2021/12/03 00:53:46;;;;;;;6.38;0.77;;;;;;;11.17;69.17;102057.56;5033209;28;20132;-72
2021/12/03 00:56:16;;;;;;;2.90;0.50;;;;;;;11.12;72.66;102039.22;5030461;28;20076;-72
2021/12/03 00:58:45;;;;;;;1.83;0.80;;;;;;;11.08;69.36;102032.97;5033067;28;20438;-72
2021/12/03 01:01:13;;;;;;;4.47;1.05;;;;;;;11.07;71.26;102035.53;5034122;28;20049;-71
2021/12/03 01:03:42;;;;;;;3.78;0.82;;;;;;;11.03;69.63;102042.25;5033737;28;20487;-71
2021/12/03 01:06:13;;;;;;;2.33;0.93;;;;;;;11.02;67.93;102037.88;5034028;28;20117;-72
2021/12/03 01:08:41;;;;;;;2.97;0.95;;;;;;;11.01;67.78;102053.34;5034297;28;20080;-72
2021/12/03 01:11:11;;;;;;;3.58;0.70;;;;;;;10.97;67.80;102057.50;5033772;28;20458;-71
2021/12/03 01:13:41;;;;;;;6.95;1.00;;;;;;;10.94;70.49;102057.34;5033770;28;20049;-72
2021/12/03 01:16:11;;;;;;;2.20;0.90;;;;;;;10.94;69.54;102052.16;5034116;28;20053;-72
2021/12/03 01:18:41;;;;;;;3.22;0.82;;;;;;;10.91;69.64;102052.00;5033992;28;20488;-72
2021/12/03 01:21:10;;;;;;;2.80;1.05;;;;;;;10.87;72.07;102052.66;5033752;28;20478;-72
2021/12/03 01:23:41;;;;;;;2.08;0.90;;;;;;;10.84;69.25;102044.75;5033423;28;20072;-72
2021/12/03 01:26:09;;;;;;;1.73;0.80;;;;;;;10.79;69.87;102048.81;5033842;28;20500;-72
2021/12/03 01:28:38;;;;;;;3.10;0.90;;;;;;;10.76;68.41;102044.38;5033883;28;20450;-72
2021/12/03 01:31:07;;;;;;;2.97;0.77;;;;;;;10.76;70.13;102046.06;5033615;28;20064;-72
2021/12/03 01:33:36;;;;;;;1.52;0.65;;;;;;;10.71;71.17;102051.03;5033344;28;20554;-71
2021/12/03 01:36:05;;;;;;;3.22;0.80;;;;;;;10.68;71.64;102049.19;5033458;28;20487;-71
2021/12/03 01:38:34;;;;;;;5.88;1.23;;;;;;;10.65;70.10;102046.44;5034142;28;20519;-72
2021/12/03 01:41:05;;;;;;;7.05;1.25;;;;;;;10.62;70.86;102050.56;5033798;28;20450;-72
2021/12/03 01:43:34;;;;;;;4.95;1.40;;;;;;;10.59;71.94;102058.19;5033933;28;20398;-72
2021/12/03 01:46:06;;;;;;;11.48;1.35;;;;;;;10.56;72.44;102055.44;5033735;28;20088;-72
2021/12/03 01:48:35;;;;;;;6.43;1.50;;;;;;;10.56;72.77;102065.78;5033973;28;20095;-72
2021/12/03 01:51:04;;;;;;;3.20;1.48;;;;;;;10.57;73.71;102072.75;5035486;28;20537;-72
2021/12/03 01:53:36;;;;;;;2.55;1.02;;;;;;;10.53;71.35;102071.69;5034750;28;20503;-74
2021/12/03 01:56:09;;;;;;;2.65;1.13;;;;;;;10.47;72.32;102079.16;5034918;28;20051;-72
2021/12/03 01:58:38;;;;;;;6.43;1.20;;;;;;;10.42;70.95;102066.00;5015111;28;20046;-72
2021/12/03 02:01:09;;;;;;;3.78;1.27;;;;;;;10.37;70.57;102070.03;5014770;28;20049;-71
2021/12/03 02:03:41;;;;;;;2.95;0.85;;;;;;;10.34;73.21;102075.03;5013371;28;20147;-72
2021/12/03 02:06:12;;;;;;;3.38;0.95;;;;;;;10.33;72.15;102073.28;5013594;28;20062;-71
2021/12/03 02:08:42;;;;;;;8.70;1.40;;;;;;;10.33;71.65;102082.72;5013484;28;20086;-71
2021/12/03 02:11:13;;;;;;;3.92;0.73;;;;;;;10.28;71.19;102085.03;5024001;28;20067;-70
2021/12/03 02:13:42;;;;;;;12.73;1.63;;;;;;;10.26;71.15;102082.38;5032679;28;20491;-71
2021/12/03 02:16:12;;;;;;;1.63;0.65;;;;;;;10.24;71.62;102088.28;5032744;28;20049;-70
2021/12/03 02:18:41;;;;;;;2.78;1.10;;;;;;;10.22;71.17;102093.38;5033031;28;20103;-70
2021/12/03 02:21:12;;;;;;;1.42;0.60;;;;;;;10.20;69.79;102107.94;5032745;28;20537;-70
2021/12/03 02:23:41;;;;;;;1.90;0.60;;;;;;;10.16;70.55;102121.50;5032324;28;20453;-70
2021/12/03 02:26:10;;;;;;;1.20;0.40;;;;;;;10.13;69.56;102126.53;5032494;28;20049;-70
2021/12/03 02:28:42;;;;;;;1.58;0.70;;;;;;;10.10;70.85;102121.19;5032820;28;20545;-70
2021/12/03 02:31:11;;;;;;;1.48;0.65;;;;;;;10.11;70.33;102116.91;5032566;28;20499;-71
2021/12/03 02:33:39;;;;;;;5.78;1.15;;;;;;;10.08;68.06;102115.06;5032149;28;20045;-71
2021/12/03 02:36:10;;;;;;;5.97;0.65;;;;;;;10.05;69.45;102118.34;5032469;28;20052;-71
2021/12/03 02:38:39;;;;;;;0.70;0.52;;;;;;;10.04;70.27;102118.28;5032475;28;20053;-71
2021/12/03 02:41:08;;;;;;;1.00;0.40;;;;;;;9.99;68.46;102133.53;5032360;28;20085;-71
2021/12/03 02:43:37;;;;;;;1.15;0.52;;;;;;;9.99;68.45;102124.91;5031890;28;20053;-72
2021/12/03 02:46:06;;;;;;;2.47;0.70;;;;;;;9.94;70.20;102123.75;5032827;28;20480;-71
2021/12/03 02:48:35;;;;;;;2.10;0.50;;;;;;;9.88;71.94;102119.16;5035178;28;20049;-72
2021/12/03 02:51:05;;;;;;;5.95;0.45;;;;;;;9.89;70.14;102122.59;5032678;28;20083;-71
2021/12/03 02:53:36;;;;;;;1.55;0.50;;;;;;;9.84;70.44;102123.25;5031782;28;20045;-72
2021/12/03 02:56:05;;;;;;;1.15;0.63;;;;;;;9.79;75.14;102114.34;5032457;28;20403;-72
2021/12/03 02:58:33;;;;;;;2.65;0.52;;;;;;;9.74;73.20;102118.41;5032553;28;20053;-72
2021/12/03 03:01:03;;;;;;;1.55;0.65;;;;;;;9.69;72.69;102101.75;5032756;28;20045;-72
2021/12/03 03:03:32;;;;;;;4.38;0.57;;;;;;;9.60;72.65;102093.50;5032096;28;20062;-71
2021/12/03 03:06:03;;;;;;;1.27;0.63;;;;;;;9.55;70.92;102097.50;5032579;28;20103;-71
2021/12/03 03:08:34;;;;;;;1.98;0.73;;;;;;;9.52;74.89;102099.94;5032463;28;20045;-71
2021/12/03 03:11:06;;;;;;;2.10;0.57;;;;;;;9.49;73.15;102097.19;5032378;28;20091;-71
2021/12/03 03:13:34;;;;;;;1.17;0.60;;;;;;;9.45;73.38;102093.53;5031689;28;20415;-71
2021/12/03 03:16:04;;;;;;;0.57;0.30;;;;;;;9.42;73.33;102091.66;5032418;28;20058;-71
2021/12/03 03:18:32;;;;;;;3.35;0.60;;;;;;;9.35;73.49;102081.81;5032071;28;20050;-71
2021/12/03 03:21:03;;;;;;;0.73;0.38;;;;;;;9.33;71.49;102091.16;5031786;28;20042;-71
2021/12/03 03:23:33;;;;;;;2.95;0.75;;;;;;;9.30;73.31;102096.16;5030959;28;20065;-70
2021/12/03 03:26:04;;;;;;;0.55;0.20;;;;;;;9.30;70.90;102095.25;5031957;28;20095;-71
2021/12/03 03:28:33;;;;;;;3.75;0.70;;;;;;;9.31;72.12;102091.88;5032450;28;20053;-71
2021/12/03 03:31:01;;;;;;;3.60;0.68;;;;;;;9.31;72.16;102097.03;5031905;28;20555;-70
2021/12/03 03:33:32;;;;;;;1.85;0.60;;;;;;;9.30;71.90;102101.31;5031397;28;20041;-70
2021/12/03 03:36:01;;;;;;;0.45;0.30;;;;;;;9.29;72.34;102103.81;5032822;28;20045;-71
2021/12/03 03:38:29;;;;;;;1.42;1.30;;;;;;;9.25;72.30;102100.16;5032323;28;20487;-71
2021/12/03 03:40:58;;;;;;;2.42;0.40;;;;;;;9.22;72.68;102106.03;5031872;28;20076;-71
2021/12/03 03:43:28;;;;;;;1.85;0.35;;;;;;;9.12;74.73;102105.47;5031745;28;20069;-71
2021/12/03 03:45:57;;;;;;;4.57;0.55;;;;;;;9.07;73.17;102112.94;5035141;28;20042;-70
2021/12/03 03:48:26;;;;;;;1.88;0.45;;;;;;;9.06;73.40;102110.25;5032081;28;20045;-70
2021/12/03 03:50:55;;;;;;;2.20;0.63;;;;;;;9.07;74.81;102114.59;5032112;28;20043;-69
2021/12/03 03:53:23;;;;;;;1.95;0.68;;;;;;;9.06;74.77;102115.41;5031582;28;20140;-70
2021/12/03 03:55:52;;;;;;;0.68;0.63;;;;;;;9.03;74.06;102116.13;5032103;28;20045;-73
2021/12/03 03:58:20;;;;;;;2.55;0.60;;;;;;;8.99;75.09;102111.59;5031511;28;20050;-71
2021/12/03 04:00:51;;;;;;;1.38;0.30;;;;;;;8.97;73.61;102105.44;5031869;28;20103;-70
2021/12/03 04:03:19;;;;;;;1.52;0.50;;;;;;;8.95;73.50;102097.59;5031189;28;20050;-70
2021/12/03 04:05:48;;;;;;;3.92;0.63;;;;;;;8.95;73.63;102097.59;5031887;28;20081;-71
2021/12/03 04:08:16;;;;;;;2.53;0.60;;;;;;;8.93;75.39;102103.50;5031651;28;20738;-71
2021/12/03 04:10:46;;;;;;;0.60;0.50;;;;;;;8.90;72.87;102109.38;5031532;28;20430;-71
2021/12/03 04:13:15;;;;;;;2.25;0.32;;;;;;;8.83;73.93;102109.81;5031235;28;20057;-70
2021/12/03 04:15:44;;;;;;;4.45;0.30;;;;;;;8.81;74.67;102109.72;5031676;28;20552;-70
2021/12/03 04:18:14;;;;;;;0.77;0.40;;;;;;;8.81;76.33;102114.00;5031374;28;20080;-71
2021/12/03 04:20:43;;;;;;;0.30;0.20;;;;;;;8.81;76.03;102109.72;5031479;28;20049;-70
2021/12/03 04:23:16;;;;;;;0.57;0.50;;;;;;;8.80;77.23;102105.38;5030875;28;20085;-72
2021/12/03 04:25:45;;;;;;;0.80;0.30;;;;;;;8.75;76.40;102105.88;5031606;28;20068;-70
2021/12/03 04:28:13;;;;;;;3.10;0.65;;;;;;;8.70;73.86;102108.19;5031598;28;20053;-70
2021/12/03 04:30:42;;;;;;;2.35;0.35;;;;;;;8.69;74.66;102115.88;5031366;28;20045;-71
2021/12/03 04:33:11;;;;;;;2.78;0.38;;;;;;;8.67;75.15;102107.16;5032461;28;20045;-71
2021/12/03 04:35:41;;;;;;;2.85;0.47;;;;;;;8.62;74.82;102106.00;5035357;28;20412;-70
2021/12/03 04:38:10;;;;;;;4.38;0.40;;;;;;;8.59;74.50;102097.28;5034971;28;20100;-71
2021/12/03 04:40:40;;;;;;;1.75;0.20;;;;;;;8.56;72.45;102106.50;5035400;28;20058;-70
2021/12/03 04:43:09;;;;;;;0.75;0.35;;;;;;;8.55;72.67;102104.72;5036808;28;20077;-70
2021/12/03 04:45:37;;;;;;;0.52;0.22;;;;;;;8.56;72.77;102101.34;5035965;28;20045;-70
2021/12/03 04:48:07;;;;;;;4.05;0.60;;;;;;;8.56;73.85;102112.53;5035268;28;20069;-70
2021/12/03 04:50:38;;;;;;;3.38;0.32;;;;;;;8.56;74.85;102109.09;5034918;28;20049;-70
2021/12/03 04:53:09;;;;;;;0.55;0.20;;;;;;;8.55;74.45;102103.03;5034656;28;20561;-70
2021/12/03 04:55:39;;;;;;;5.70;0.52;;;;;;;8.52;75.18;102096.78;5035012;28;20111;-71
2021/12/03 04:58:07;;;;;;;4.78;0.73;;;;;;;8.52;75.54;102102.88;5034717;28;20045;-70
2021/12/03 05:00:39;;;;;;;5.97;0.50;;;;;;;8.52;75.68;102105.44;5034733;28;20045;-70
2021/12/03 05:03:08;;;;;;;2.83;0.50;;;;;;;8.50;75.24;102096.72;5034211;28;20052;-71
2021/12/03 05:05:37;;;;;;;1.17;0.80;;;;;;;8.40;74.05;102084.06;5034987;28;20052;-71
2021/12/03 05:08:09;;;;;;;2.40;0.80;;;;;;;8.47;72.40;102101.69;5034100;28;20384;-71
2021/12/03 05:10:53;;;;;;;2.20;0.57;;;;;;;8.47;73.80;102093.94;5034267;28;20042;-70
2021/12/03 05:13:23;;;;;;;2.33;0.57;;;;;;;8.36;74.04;102074.31;5034960;28;20488;-70
2021/12/03 05:15:52;;;;;;;3.17;0.50;;;;;;;8.42;71.04;102100.53;5035420;28;20120;-71
2021/12/03 05:18:22;;;;;;;3.17;0.43;;;;;;;8.42;72.08;102113.41;5034406;28;20118;-71
2021/12/03 05:20:53;;;;;;;5.32;1.00;;;;;;;8.37;71.62;102091.59;5034864;28;20087;-71
2021/12/03 05:23:24;;;;;;;3.53;0.70;;;;;;;8.39;70.53;102097.75;5034323;28;20081;-71
2021/12/03 05:25:54;;;;;;;3.05;0.70;;;;;;;8.38;71.75;102101.09;5034966;28;20053;-71
2021/12/03 05:28:23;;;;;;;3.22;0.35;;;;;;;8.38;71.96;102111.41;5034303;28;20506;-71
2021/12/03 05:30:52;;;;;;;2.90;0.20;;;;;;;8.31;71.34;102094.69;5034751;28;20045;-71
2021/12/03 05:33:21;;;;;;;3.90;1.65;;;;;;;8.31;71.48;102097.25;5033993;28;20443;-70
2021/12/03 05:35:50;;;;;;;1.38;0.75;;;;;;;8.29;71.59;102100.53;5034544;28;20084;-70
2021/12/03 05:38:18;;;;;;;4.50;0.65;;;;;;;8.28;74.59;102088.47;5034533;28;20052;-72
2021/12/03 05:40:48;;;;;;;3.63;0.45;;;;;;;8.22;74.14;102095.81;5035095;28;20582;-71
2021/12/03 05:43:17;;;;;;;1.85;0.47;;;;;;;8.21;75.80;102096.63;5035469;28;20045;-72
2021/12/03 05:45:46;;;;;;;1.25;0.50;;;;;;;8.15;73.36;102092.91;5034392;28;20097;-72
2021/12/03 05:48:15;;;;;;;1.38;0.60;;;;;;;8.09;74.13;102092.50;5034300;28;20510;-72
2021/12/03 05:50:45;;;;;;;0.73;0.30;;;;;;;8.16;74.48;102099.81;5033966;28;20518;-71
2021/12/03 05:53:13;;;;;;;5.03;0.82;;;;;;;8.17;74.35;102099.00;5033590;28;20108;-71
2021/12/03 05:55:42;;;;;;;4.25;0.60;;;;;;;8.11;73.01;102088.34;5034025;28;20061;-72
2021/12/03 05:58:12;;;;;;;3.33;0.90;;;;;;;8.19;73.01;102112.00;5033704;28;20111;-71
2021/12/03 06:00:42;;;;;;;3.17;0.70;;;;;;;8.19;73.36;102115.47;5034531;28;20046;-72
2021/12/03 06:03:11;;;;;;;3.95;0.40;;;;;;;8.19;73.48;102132.63;5033299;28;20081;-71
2021/12/03 06:05:40;;;;;;;5.30;0.47;;;;;;;8.17;72.91;102111.91;5033995;28;20049;-72
2021/12/03 06:08:09;;;;;;;3.00;0.25;;;;;;;8.15;74.08;102108.38;5033598;28;20497;-71
2021/12/03 06:10:38;;;;;;;4.40;0.70;;;;;;;8.16;74.58;102102.41;5033577;28;20092;-72
2021/12/03 06:13:07;;;;;;;1.67;0.93;;;;;;;8.18;73.23;102102.50;5033170;28;20507;-72
2021/12/03 06:15:37;;;;;;;0.60;0.50;;;;;;;8.18;73.88;102105.97;5033718;28;20119;-72
2021/12/03 06:18:05;;;;;;;1.15;0.50;;;;;;;8.16;74.58;102092.09;5033338;28;20115;-72
2021/12/03 06:20:35;;;;;;;7.47;0.93;;;;;;;8.16;71.86;102092.09;5033399;28;20479;-71
2021/12/03 06:23:04;;;;;;;3.08;0.93;;;;;;;8.15;71.25;102103.22;5033324;28;20089;-72
2021/12/03 06:25:32;;;;;;;2.42;0.50;;;;;;;8.18;72.60;102097.34;5033383;28;20690;-71
2021/12/03 06:28:01;;;;;;;4.38;0.43;;;;;;;8.18;71.84;102098.22;5033313;28;20561;-71
2021/12/03 06:30:30;;;;;;;6.47;0.95;;;;;;;8.19;71.82;102101.69;5033423;28;20498;-71
2021/12/03 06:33:00;;;;;;;1.15;0.68;;;;;;;8.19;72.92;102093.94;5032680;28;20499;-72
2021/12/03 06:35:28;;;;;;;5.35;0.85;;;;;;;8.10;74.20;102078.81;5033482;28;20080;-71
2021/12/03 06:37:57;;;;;;;5.28;0.55;;;;;;;8.16;71.57;102104.97;5033470;28;20088;-71
2021/12/03 06:40:28;;;;;;;2.75;0.68;;;;;;;8.17;70.64;102096.44;5035936;28;20092;-71
2021/12/03 06:42:57;;;;;;;3.33;0.52;;;;;;;8.17;69.66;102090.38;5033123;28;20107;-71
2021/12/03 06:45:26;;;;;;;6.72;0.77;;;;;;;8.19;69.46;102104.25;5033337;28;20119;-71
2021/12/03 06:47:54;;;;;;;3.53;0.52;;;;;;;8.18;70.50;102108.53;5033393;28;20053;-71
2021/12/03 06:50:25;;;;;;;2.72;0.28;;;;;;;8.16;68.48;102120.44;5032895;28;20188;-71
2021/12/03 06:52:58;;;;;;;3.72;0.80;;;;;;;8.15;67.08;102120.34;5032617;28;20557;-71
2021/12/03 06:55:36;;;;;;;2.55;0.70;;;;;;;8.11;68.96;102108.09;5032056;28;20144;-71
2021/12/03 06:58:05;;;;;;;2.70;0.52;;;;;;;8.13;66.96;102120.28;5032648;28;20127;-70
2021/12/03 07:00:33;;;;;;;4.45;0.80;;;;;;;8.10;65.89;102114.03;5032689;28;20054;-70
2021/12/03 07:03:02;;;;;;;0.98;0.60;;;;;;;8.10;64.73;102124.34;5032273;28;20172;-70
2021/12/03 07:05:32;;;;;;;2.45;0.43;;;;;;;8.10;65.22;102124.34;5032650;28;20049;-70
2021/12/03 07:08:00;;;;;;;1.25;0.20;;;;;;;8.09;67.16;102119.97;5032927;28;20049;-70
2021/12/03 07:10:29;;;;;;;1.65;0.50;;;;;;;8.09;66.56;102113.13;5032849;28;20110;-70
2021/12/03 07:12:58;;;;;;;6.45;0.40;;;;;;;8.08;68.02;102105.28;5032720;28;20389;-70
2021/12/03 07:15:26;;;;;;;1.60;0.68;;;;;;;8.06;66.23;102091.41;5033285;28;20522;-69
2021/12/03 07:17:55;;;;;;;3.08;0.70;;;;;;;8.06;65.55;102086.25;5032767;28;20045;-70
2021/12/03 07:20:25;;;;;;;1.13;0.30;;;;;;;8.05;66.77;102095.69;5032613;28;20052;-70
2021/12/03 07:22:56;;;;;;;5.60;0.50;;;;;;;8.06;64.53;102097.47;5032730;28;20053;-70
2021/12/03 07:25:24;;;;;;;2.17;0.30;;;;;;;8.07;65.36;102094.09;5032705;28;20096;-69
2021/12/03 07:27:53;;;;;;;1.25;0.50;;;;;;;8.06;65.63;102100.03;5032907;28;20045;-70
2021/12/03 07:30:22;;;;;;;2.60;0.35;;;;;;;8.07;66.04;102099.25;5033447;28;20045;-70
2021/12/03 07:32:51;;;;;;;2.72;0.40;;;;;;;8.03;65.89;102096.41;5032116;28;20045;-71
2021/12/03 07:35:20;;;;;;;1.42;0.50;;;;;;;8.01;66.12;102092.84;5031911;28;20057;-70
2021/12/03 07:37:48;;;;;;;5.10;0.77;;;;;;;7.99;64.24;102090.16;5030553;28;20091;-70
2021/12/03 07:40:18;;;;;;;3.95;0.45;;;;;;;7.99;65.33;102087.56;5034198;28;20053;-70
2021/12/03 07:42:47;;;;;;;2.47;0.55;;;;;;;7.97;61.90;102094.31;5030962;28;20495;-70
2021/12/03 07:45:16;;;;;;;1.05;0.50;;;;;;;7.95;63.52;102093.38;5031754;28;20103;-70
2021/12/03 07:47:45;;;;;;;3.10;0.57;;;;;;;7.97;65.82;102102.06;5031839;28;20065;-70
2021/12/03 07:50:17;;;;;;;0.75;0.28;;;;;;;7.97;65.51;102102.97;5031184;28;20052;-70
2021/12/03 07:52:46;;;;;;;8.70;0.65;;;;;;;7.97;65.08;102107.22;5031222;28;20075;-70
2021/12/03 07:55:14;;;;;;;4.13;0.57;;;;;;;7.97;65.04;102109.78;5031358;28;20092;-70
2021/12/03 07:57:44;;;;;;;1.75;0.60;;;;;;;7.95;62.71;102103.69;5031372;28;20057;-70
2021/12/03 08:00:13;;;;;;;3.40;0.30;;;;;;;7.95;63.10;102108.81;5031285;28;20049;-70
2021/12/03 08:02:42;;;;;;;2.75;0.20;;;;;;;7.93;62.31;102105.25;5030751;28;20142;-69
2021/12/03 08:05:11;;;;;;;1.02;0.47;;;;;;;7.89;60.89;102098.13;5031042;28;20053;-69
2021/12/03 08:07:40;;;;;;;3.15;0.55;;;;;;;7.86;61.32;102100.53;5030966;28;20045;-69
2021/12/03 08:10:09;;;;;;;2.50;0.43;;;;;;;7.84;62.19;102094.38;5031066;28;20133;-70
2021/12/03 08:12:41;;;;;;;6.18;0.73;;;;;;;7.84;62.79;102092.69;5030675;28;20045;-69
2021/12/03 08:15:12;;;;;;;3.53;0.50;;;;;;;7.84;62.45;102089.22;5031537;28;20049;-69
2021/12/03 08:17:41;;;;;;;0.88;0.20;;;;;;;7.81;58.84;102073.56;5031073;28;20053;-69
2021/12/03 08:20:11;;;;;;;6.32;0.47;;;;;;;7.80;57.93;102087.25;5030760;28;20053;-69
2021/12/03 08:22:40;;;;;;;1.67;0.43;;;;;;;7.78;59.89;102081.09;5030612;28;20149;-69
2021/12/03 08:25:10;;;;;;;1.20;0.38;;;;;;;7.78;59.66;102081.09;5031187;28;20054;-69
2021/12/03 08:27:39;;;;;;;2.83;0.55;;;;;;;7.76;58.62;102076.78;5031113;28;20056;-69
2021/12/03 08:30:12;;;;;;;4.97;0.85;;;;;;;7.74;57.94;102075.78;5030800;28;20041;-69
2021/12/03 08:32:43;;;;;;;1.73;0.35;;;;;;;7.75;59.83;102080.13;5030703;28;20045;-69
2021/12/03 08:35:12;;;;;;;4.25;1.05;;;;;;;7.74;62.38;102073.19;5031296;28;20042;-69
2021/12/03 08:37:44;;;;;;;1.60;0.25;;;;;;;7.71;67.03;102057.53;5032816;28;20068;-69
2021/12/03 08:40:14;;;;;;;1.45;0.43;;;;;;;7.72;63.17;102055.88;5031914;28;20512;-69
2021/12/03 08:42:42;;;;;;;1.08;0.50;;;;;;;7.72;60.48;102043.00;5030324;28;20408;-69
2021/12/03 08:45:15;;;;;;;7.68;0.95;;;;;;;7.70;61.01;102042.88;5031024;28;20088;-69
2021/12/03 08:47:45;;;;;;;1.10;0.98;;;;;;;7.69;64.63;102043.66;5030836;28;20057;-69
2021/12/03 08:50:17;;;;;;;2.90;2.13;;;;;;;7.62;65.31;102031.19;5030775;28;20484;-70
2021/12/03 08:53:07;;;;;;;1.25;0.43;;;;;;;7.57;66.09;102030.03;5030584;28;20046;-70
2021/12/03 08:55:38;;;;;;;4.45;0.50;;;;;;;7.54;68.17;102028.16;5030501;28;20054;-71
2021/12/03 08:58:09;;;;;;;0.63;0.30;;;;;;;7.53;64.96;102035.78;5031101;28;20052;-70
2021/12/03 09:00:40;;;;;;;2.95;0.68;;;;;;;7.53;64.81;102035.78;5030570;28;20488;-70
2021/12/03 09:03:09;;;;;;;2.95;0.68;;;;;;;7.49;63.62;102028.66;5030444;28;20050;-71
2021/12/03 09:05:38;;;;;;;1.27;0.43;;;;;;;7.50;66.55;102012.44;5030881;28;20045;-70
2021/12/03 09:08:06;;;;;;;3.85;0.50;;;;;;;7.48;67.73;102006.28;5030535;28;20045;-70
2021/12/03 09:10:35;;;;;;;5.00;0.30;;;;;;;7.47;67.10;101999.38;5030446;28;20041;-69
2021/12/03 09:13:04;;;;;;;2.60;0.28;;;;;;;7.46;66.18;102000.16;5030170;28;20502;-70
2021/12/03 09:15:37;;;;;;;1.25;0.20;;;;;;;7.45;65.13;101998.38;5030372;28;20056;-70
2021/12/03 09:18:21;;;;;;;2.90;0.75;;;;;;;7.44;64.67;101999.16;5030755;28;20073;-71
2021/12/03 09:20:57;;;;;;;0.80;0.47;;;;;;;7.42;63.88;101995.59;5034599;28;20081;-70
2021/12/03 09:23:33;;;;;;;2.92;0.40;;;;;;;7.40;63.29;101997.19;5034515;28;20057;-70
2021/12/03 09:26:07;;;;;;;1.77;0.28;;;;;;;7.34;62.60;102006.31;5035885;28;20514;-70
2021/12/03 09:28:37;;;;;;;4.50;0.73;;;;;;;7.33;64.40;102014.84;5035038;28;20057;-71
2021/12/03 09:31:06;;;;;;;3.15;0.40;;;;;;;7.28;64.14;102007.59;5035741;28;20045;-70
2021/12/03 09:33:39;;;;;;;3.80;0.73;;;;;;;7.19;67.10;102007.91;5034624;28;20056;-69
2021/12/03 09:36:09;;;;;;;1.95;0.70;;;;;;;7.11;68.00;102009.13;5035672;28;20053;-70
2021/12/03 09:38:38;;;;;;;4.97;0.50;;;;;;;7.05;66.74;102013.88;5036993;28;20049;-71
2021/12/03 09:41:08;;;;;;;7.22;0.70;;;;;;;7.01;67.31;102022.19;5034428;28;20389;-71
2021/12/03 09:43:39;;;;;;;2.38;0.30;;;;;;;6.99;68.15;102036.66;5033342;28;20104;-71
2021/12/03 09:46:12;;;;;;;1.85;0.50;;;;;;;6.93;67.35;102035.44;5033654;28;20060;-70
2021/12/03 09:48:57;;;;;;;5.43;1.27;;;;;;;6.87;68.05;102044.47;5033820;28;20053;-70
2021/12/03 09:51:31;;;;;;;2.65;0.57;;;;;;;6.76;66.46;102023.19;5033670;28;20553;-70
2021/12/03 09:54:19;;;;;;;2.28;0.50;;;;;;;6.80;65.64;102035.44;5033159;28;20055;-70
2021/12/03 09:56:49;;;;;;;2.60;0.30;;;;;;;6.73;70.90;102025.53;5033624;28;20069;-70
2021/12/03 10:02:19;;;;;;;1.23;0.35;;;;;;;6.68;69.02;102026.94;5033299;28;20045;-71
2021/12/03 10:05:35;;;;;;;0.70;0.30;;;;;;;6.66;70.15;102038.81;5033229;28;20056;-70
2021/12/03 10:14:09;;;;;;;3.10;0.22;;;;;;;6.61;68.99;102045.34;4943229;29;20067;-70
2021/12/03 10:17:21;;;;;;;2.85;0.75;;;;;;;6.52;69.35;102030.19;5024007;28;20060;-70
2021/12/03 10:19:59;;;;;;;1.52;0.40;;;;;;;6.54;70.20;102054.31;5032939;28;20045;-70
2021/12/03 10:25:48;;;;;;;3.85;0.47;;;;;;;6.52;67.49;102052.44;5032657;28;20041;-70
2021/12/03 10:34:09;;;;;;;1.48;0.70;;;;;;;6.40;72.23;102017.41;5032819;28;20064;-70
2021/12/03 10:39:33;;;;;;;4.30;0.80;;;;;;;6.33;68.79;102025.50;5028961;28;20491;-70
2021/12/03 10:42:11;;;;;;;5.57;0.80;;;;;;;6.29;69.35;102013.22;5032571;28;20041;-70
2021/12/03 10:45:07;;;;;;;5.47;0.70;;;;;;;6.23;69.63;102008.56;5032484;28;20045;-70
2021/12/03 10:47:47;;;;;;;1.75;0.40;;;;;;;6.20;69.94;102023.78;5032861;28;20415;-70
2021/12/03 10:50:41;;;;;;;1.50;0.50;;;;;;;6.17;69.96;102036.44;5012733;28;20660;-70
2021/12/03 10:53:24;;;;;;;1.60;0.43;;;;;;;6.21;70.24;102040.09;5012254;28;20442;-70
2021/12/03 11:02:07;;;;;;;5.13;0.70;;;;;;;5.98;83.04;102013.75;4974523;28;20428;-70
2021/12/03 11:08:00;;;;;;;4.78;0.52;;;;;;;5.98;82.42;102011.16;5002113;28;20049;-70
2021/12/03 11:31:01;;;;;;;6.45;1.02;;;;;;;5.79;86.00;102021.81;5033089;28;20041;-70
2021/12/03 11:34:16;;;;;;;3.72;1.17;;;;;;;5.77;84.10;102017.34;5032830;28;20107;-70
2021/12/03 11:37:25;;;;;;;0.80;0.30;;;;;;;5.65;82.98;102008.00;5035422;28;20053;-70
2021/12/03 12:24:34;;;;;;;2.83;0.52;;;;;;;5.10;87.24;101967.31;5030765;28;20072;-70
2021/12/03 13:18:37;;;;;;;3.72;1.08;;;;;;;4.45;92.68;101980.63;5034754;28;20072;-70
2021/12/03 13:27:25;;;;;;;3.00;0.43;;;;;;;4.44;100.00;101962.56;5035467;28;20053;-70
2021/12/03 14:38:39;;;;;;;17.00;1.90;;;;;;;4.27;100.00;101926.34;5046368;28;20095;-70
2021/12/03 14:41:33;;;;;;;3.67;0.85;;;;;;;4.28;100.00;101938.38;5047753;28;20045;-69
2021/12/03 14:44:15;;;;;;;2.63;0.52;;;;;;;4.30;100.00;101939.38;5047530;28;20057;-69
2021/12/03 14:52:30;;;;;;;0.98;0.60;;;;;;;4.40;100.00;101921.34;5047320;28;20376;-69
2021/12/03 14:55:01;;;;;;;5.22;0.60;;;;;;;4.42;100.00;101906.06;5047584;28;20045;-69
2021/12/03 14:57:40;;;;;;;4.05;1.10;;;;;;;4.44;100.00;101904.50;5047708;28;20050;-70
2021/12/03 15:00:33;;;;;;;;;;;;;;;;;;;;;
2021/12/03 15:03:19;;;;;;;2.05;0.57;;;;;;;4.47;100.00;101903.88;5019825;28;20060;-69
2021/12/03 15:06:01;;;;;;;0.93;0.40;;;;;;;4.49;100.00;101918.56;5047690;28;20049;-70
2021/12/03 15:08:34;;;;;;;2.63;0.87;;;;;;;4.53;100.00;101924.78;5047846;28;20072;-70
2021/12/03 15:11:34;;;;;;;3.63;1.03;;;;;;;4.55;100.00;101923.22;5047107;28;20313;-69
2021/12/03 15:25:23;;;;;;;5.55;1.73;;;;;;;4.56;100.00;101907.09;5035031;28;20053;-71
2021/12/03 15:30:53;;;;;;;1.65;0.80;;;;;;;4.59;100.00;101899.63;5034626;28;20044;-71
2021/12/03 15:33:35;;;;;;;2.13;1.08;;;;;;;4.58;100.00;101902.94;5034453;28;20084;-70
2021/12/03 15:36:06;;;;;;;3.30;0.82;;;;;;;4.58;100.00;101901.28;5033808;28;20045;-70
2021/12/03 15:38:47;;;;;;;4.03;0.90;;;;;;;4.61;100.00;101908.31;5035092;28;20057;-71
2021/12/03 15:41:47;;;;;;;2.67;1.00;;;;;;;4.62;100.00;101910.06;5032582;28;20531;-71
2021/12/03 16:04:01;;;;;;;4.82;1.38;;;;;;;4.78;100.00;101897.56;5033019;28;20111;-70
2021/12/03 16:06:41;;;;;;;6.05;1.00;;;;;;;4.79;100.00;101896.81;5033221;28;20258;-70
2021/12/03 16:09:16;;;;;;;3.40;1.33;;;;;;;4.86;100.00;101887.88;5031799;28;20427;-70
2021/12/03 16:11:51;;;;;;;3.05;1.23;;;;;;;4.90;100.00;101876.13;5016132;28;20057;-70
2021/12/03 16:23:14;;;;;;;2.85;0.88;;;;;;;5.15;100.00;101879.63;4966328;28;20046;-69